DLH10F LCLK-EDDF
Flight info
| Callsign | DLH10F |
|---|---|
| Flight time | 3h 28m |
| Altitude | 40000 |
| Route | PHA DCT GENOS DCT PEDER DCT EVENO UM601 EXELA UN127 RIKSO DCT FSK UL608 DISOR DCT LONTA UL608 DOLEV DCT PETOV DCT SIMBA DCT AKINI T161 DEBHI DEBHI1B |
| Aircraft | A359/H-SDE2E3GHIJ3J4J5LM1ORWXY/LB1D1 |
Departure
| Time | 2026-05-07 14:39 |
|---|---|
| Airport | Larnaca International Airport (LCLK) |
Arrival
| Time | 2026-05-07 18:07 |
|---|---|
| Airport | Frankfurt Main Airport (EDDF) |
| Time | Latitude | Longitude | Altitude | Speed | Heading |
|---|---|---|---|---|---|
| 2026-05-07 14:10 | 34.87031 | 33.61055 | 25 ft | 0 kts | 223° |
| 2026-05-07 14:28 | 34.87035 | 33.61060 | 30 ft | 2 kts | 221° |
| 2026-05-07 14:28 | 34.87048 | 33.61072 | 30 ft | 2 kts | 218° |
| 2026-05-07 14:28 | 34.87061 | 33.61085 | 30 ft | 2 kts | 213° |
| 2026-05-07 14:29 | 34.87075 | 33.61095 | 30 ft | 2 kts | 205° |
| 2026-05-07 14:29 | 34.87091 | 33.61102 | 30 ft | 2 kts | 189° |
| 2026-05-07 14:29 | 34.87105 | 33.61102 | 30 ft | 2 kts | 163° |
| 2026-05-07 14:29 | 34.87119 | 33.61093 | 30 ft | 1 kts | 136° |
| 2026-05-07 14:30 | 34.87122 | 33.61090 | 30 ft | 0 kts | 134° |
| 2026-05-07 14:33 | 34.87102 | 33.61114 | 30 ft | 6 kts | 134° |
| 2026-05-07 14:33 | 34.87050 | 33.61178 | 28 ft | 14 kts | 134° |
| 2026-05-07 14:33 | 34.86972 | 33.61275 | 25 ft | 14 kts | 135° |
| 2026-05-07 14:33 | 34.86918 | 33.61341 | 28 ft | 18 kts | 135° |
| 2026-05-07 14:34 | 34.86887 | 33.61420 | 27 ft | 8 kts | 75° |
| 2026-05-07 14:34 | 34.86935 | 33.61493 | 30 ft | 14 kts | 44° |
| 2026-05-07 14:34 | 34.87014 | 33.61589 | 26 ft | 18 kts | 46° |
| 2026-05-07 14:34 | 34.87105 | 33.61702 | 27 ft | 20 kts | 45° |
| 2026-05-07 14:35 | 34.87210 | 33.61830 | 26 ft | 23 kts | 45° |
| 2026-05-07 14:35 | 34.87327 | 33.61974 | 25 ft | 25 kts | 45° |
| 2026-05-07 14:35 | 34.87455 | 33.62131 | 24 ft | 27 kts | 45° |
| 2026-05-07 14:35 | 34.87593 | 33.62298 | 24 ft | 29 kts | 45° |
| 2026-05-07 14:36 | 34.87743 | 33.62481 | 25 ft | 31 kts | 45° |
| 2026-05-07 14:36 | 34.87900 | 33.62672 | 27 ft | 33 kts | 45° |
| 2026-05-07 14:36 | 34.88052 | 33.62857 | 23 ft | 25 kts | 44° |
| 2026-05-07 14:36 | 34.88170 | 33.63000 | 22 ft | 21 kts | 45° |
| 2026-05-07 14:37 | 34.88281 | 33.63135 | 22 ft | 23 kts | 45° |
| 2026-05-07 14:37 | 34.88442 | 33.63376 | 22 ft | 9 kts | 104° |
| 2026-05-07 14:37 | 34.88405 | 33.63430 | 24 ft | 9 kts | 133° |
| 2026-05-07 14:38 | 34.88354 | 33.63493 | 22 ft | 12 kts | 136° |
| 2026-05-07 14:38 | 34.88294 | 33.63507 | 22 ft | 8 kts | 211° |
| 2026-05-07 14:38 | 34.88271 | 33.63481 | 21 ft | 0 kts | 224° |
| 2026-05-07 14:39 | 34.88171 | 33.63361 | 24 ft | 54 kts | 225° |
| 2026-05-07 14:39 | 34.87722 | 33.62816 | 28 ft | 125 kts | 225° |
| 2026-05-07 14:39 | 34.86969 | 33.61907 | 217 ft | 166 kts | 224° |
| 2026-05-07 14:39 | 34.86159 | 33.60963 | 1112 ft | 164 kts | 224° |
| 2026-05-07 14:40 | 34.85303 | 33.59900 | 1660 ft | 187 kts | 229° |
| 2026-05-07 14:40 | 34.84397 | 33.58664 | 2213 ft | 208 kts | 230° |
| 2026-05-07 14:40 | 34.83372 | 33.57268 | 2721 ft | 232 kts | 229° |
| 2026-05-07 14:40 | 34.82229 | 33.55765 | 3263 ft | 255 kts | 229° |
| 2026-05-07 14:41 | 34.80973 | 33.54143 | 3820 ft | 268 kts | 228° |
| 2026-05-07 14:41 | 34.79684 | 33.52488 | 4440 ft | 272 kts | 228° |
| 2026-05-07 14:41 | 34.78369 | 33.50805 | 5058 ft | 275 kts | 229° |
| 2026-05-07 14:41 | 34.77045 | 33.49112 | 5677 ft | 278 kts | 229° |
| 2026-05-07 14:42 | 34.75705 | 33.47399 | 6326 ft | 281 kts | 229° |
| 2026-05-07 14:42 | 34.74355 | 33.45675 | 6942 ft | 284 kts | 228° |
| 2026-05-07 14:42 | 34.72971 | 33.43907 | 7488 ft | 286 kts | 228° |
| 2026-05-07 14:42 | 34.71608 | 33.42168 | 7988 ft | 289 kts | 228° |
| 2026-05-07 14:43 | 34.70215 | 33.40391 | 8489 ft | 291 kts | 228° |
| 2026-05-07 14:43 | 34.68947 | 33.38461 | 9011 ft | 292 kts | 240° |
| 2026-05-07 14:43 | 34.68167 | 33.36182 | 9518 ft | 291 kts | 259° |
| 2026-05-07 14:43 | 34.67989 | 33.33750 | 9963 ft | 292 kts | 273° |
| 2026-05-07 14:44 | 34.68087 | 33.31180 | 10102 ft | 323 kts | 275° |
| 2026-05-07 14:44 | 34.68234 | 33.28319 | 10119 ft | 346 kts | 275° |
| 2026-05-07 14:44 | 34.68370 | 33.25403 | 10406 ft | 351 kts | 274° |
| 2026-05-07 14:44 | 34.68499 | 33.22411 | 10878 ft | 353 kts | 274° |
| 2026-05-07 14:45 | 34.68622 | 33.19444 | 11361 ft | 354 kts | 274° |
| 2026-05-07 14:45 | 34.68745 | 33.16427 | 11910 ft | 356 kts | 274° |
| 2026-05-07 14:45 | 34.68867 | 33.13412 | 12543 ft | 358 kts | 274° |
| 2026-05-07 14:45 | 34.68990 | 33.10377 | 13188 ft | 360 kts | 274° |
| 2026-05-07 14:46 | 34.69107 | 33.07349 | 13832 ft | 363 kts | 274° |
| 2026-05-07 14:46 | 34.69225 | 33.04276 | 14421 ft | 365 kts | 274° |
| 2026-05-07 14:46 | 34.69344 | 33.01168 | 15016 ft | 367 kts | 274° |
| 2026-05-07 14:46 | 34.69460 | 32.98090 | 15613 ft | 368 kts | 274° |
| 2026-05-07 14:47 | 34.69578 | 32.94983 | 16236 ft | 369 kts | 275° |
| 2026-05-07 14:47 | 34.69695 | 32.91861 | 16852 ft | 370 kts | 275° |
| 2026-05-07 14:47 | 34.69813 | 32.88719 | 17498 ft | 371 kts | 275° |
| 2026-05-07 14:47 | 34.69930 | 32.85568 | 18154 ft | 373 kts | 275° |
| 2026-05-07 14:48 | 34.70047 | 32.82414 | 18757 ft | 374 kts | 275° |
| 2026-05-07 14:48 | 34.70165 | 32.79234 | 19360 ft | 377 kts | 275° |
| 2026-05-07 14:48 | 34.70281 | 32.76076 | 19843 ft | 379 kts | 275° |
| 2026-05-07 14:48 | 34.70397 | 32.72868 | 20048 ft | 381 kts | 275° |
| 2026-05-07 14:49 | 34.70513 | 32.69636 | 20112 ft | 383 kts | 275° |
| 2026-05-07 14:49 | 34.70630 | 32.66365 | 20459 ft | 385 kts | 275° |
| 2026-05-07 14:49 | 34.70746 | 32.63144 | 20920 ft | 386 kts | 275° |
| 2026-05-07 14:49 | 34.70862 | 32.59854 | 21438 ft | 388 kts | 275° |
| 2026-05-07 14:50 | 34.70976 | 32.56557 | 21949 ft | 391 kts | 275° |
| 2026-05-07 14:50 | 34.71090 | 32.53262 | 22469 ft | 393 kts | 275° |
| 2026-05-07 14:50 | 34.71136 | 32.49905 | 23001 ft | 398 kts | 272° |
| 2026-05-07 14:50 | 34.71046 | 32.46534 | 23539 ft | 401 kts | 270° |
| 2026-05-07 14:51 | 34.70882 | 32.43140 | 24008 ft | 405 kts | 269° |
| 2026-05-07 14:51 | 34.70684 | 32.39730 | 24464 ft | 408 kts | 269° |
| 2026-05-07 14:51 | 34.70475 | 32.36276 | 24936 ft | 411 kts | 269° |
| 2026-05-07 14:51 | 34.70267 | 32.32789 | 25384 ft | 415 kts | 269° |
| 2026-05-07 14:52 | 34.70066 | 32.29300 | 25482 ft | 415 kts | 269° |
| 2026-05-07 14:52 | 34.69869 | 32.25800 | 25853 ft | 417 kts | 269° |
| 2026-05-07 14:52 | 34.69674 | 32.22231 | 26345 ft | 421 kts | 269° |
| 2026-05-07 14:52 | 34.69482 | 32.18698 | 26847 ft | 423 kts | 269° |
| 2026-05-07 14:53 | 34.69286 | 32.15095 | 27363 ft | 426 kts | 269° |
| 2026-05-07 14:53 | 34.69092 | 32.11529 | 27872 ft | 429 kts | 269° |
| 2026-05-07 14:53 | 34.68892 | 32.07898 | 28418 ft | 432 kts | 269° |
| 2026-05-07 14:53 | 34.68689 | 32.04237 | 28957 ft | 436 kts | 269° |
| 2026-05-07 14:54 | 34.68483 | 32.00543 | 29503 ft | 438 kts | 269° |
| 2026-05-07 14:54 | 34.68316 | 31.96827 | 29971 ft | 440 kts | 272° |
| 2026-05-07 14:54 | 34.68455 | 31.93126 | 30113 ft | 434 kts | 279° |
| 2026-05-07 14:54 | 34.69010 | 31.89545 | 30117 ft | 431 kts | 288° |
| 2026-05-07 14:55 | 34.71339 | 31.82948 | 30118 ft | 427 kts | 301° |
| 2026-05-07 14:55 | 34.72815 | 31.79817 | 30322 ft | 427 kts | 302° |
| 2026-05-07 14:55 | 34.74336 | 31.76719 | 30673 ft | 426 kts | 303° |
| 2026-05-07 14:56 | 34.75864 | 31.73642 | 31033 ft | 423 kts | 303° |
| 2026-05-07 14:56 | 34.77384 | 31.70576 | 31410 ft | 421 kts | 303° |
| 2026-05-07 14:56 | 34.78883 | 31.67533 | 31779 ft | 418 kts | 303° |
| 2026-05-07 14:56 | 34.80370 | 31.64494 | 32157 ft | 416 kts | 303° |
| 2026-05-07 14:57 | 34.81840 | 31.61474 | 32545 ft | 414 kts | 303° |
| 2026-05-07 14:57 | 34.83297 | 31.58469 | 32929 ft | 411 kts | 303° |
| 2026-05-07 14:57 | 34.84743 | 31.55481 | 33320 ft | 408 kts | 303° |
| 2026-05-07 14:57 | 34.86183 | 31.52503 | 33714 ft | 406 kts | 303° |
| 2026-05-07 14:58 | 34.87592 | 31.49584 | 34125 ft | 404 kts | 303° |
| 2026-05-07 14:58 | 34.89031 | 31.46603 | 34488 ft | 402 kts | 303° |
| 2026-05-07 14:58 | 34.90429 | 31.43706 | 34806 ft | 402 kts | 303° |
| 2026-05-07 14:58 | 34.91843 | 31.40776 | 35054 ft | 401 kts | 303° |
| 2026-05-07 14:59 | 34.93256 | 31.37845 | 35293 ft | 401 kts | 303° |
| 2026-05-07 14:59 | 34.94668 | 31.34911 | 35540 ft | 401 kts | 303° |
| 2026-05-07 14:59 | 34.96081 | 31.31974 | 35785 ft | 401 kts | 303° |
| 2026-05-07 14:59 | 34.97493 | 31.29035 | 36039 ft | 401 kts | 303° |
| 2026-05-07 15:00 | 34.98902 | 31.26101 | 36293 ft | 401 kts | 303° |
| 2026-05-07 15:00 | 35.00316 | 31.23155 | 36543 ft | 401 kts | 302° |
| 2026-05-07 15:00 | 35.01724 | 31.20217 | 36810 ft | 401 kts | 302° |
| 2026-05-07 15:00 | 35.03136 | 31.17270 | 37076 ft | 402 kts | 302° |
| 2026-05-07 15:01 | 35.04546 | 31.14322 | 37333 ft | 402 kts | 302° |
| 2026-05-07 15:01 | 35.05956 | 31.11374 | 37603 ft | 402 kts | 302° |
| 2026-05-07 15:01 | 35.07345 | 31.08465 | 37878 ft | 402 kts | 302° |
| 2026-05-07 15:01 | 35.08755 | 31.05513 | 38148 ft | 402 kts | 302° |
| 2026-05-07 15:02 | 35.10166 | 31.02554 | 38425 ft | 402 kts | 302° |
| 2026-05-07 15:02 | 35.11573 | 30.99599 | 38710 ft | 402 kts | 302° |
| 2026-05-07 15:02 | 35.12982 | 30.96640 | 38953 ft | 402 kts | 302° |
| 2026-05-07 15:02 | 35.14388 | 30.93684 | 39178 ft | 402 kts | 302° |
| 2026-05-07 15:03 | 35.15794 | 30.90726 | 39399 ft | 402 kts | 302° |
| 2026-05-07 15:03 | 35.17263 | 30.87814 | 39638 ft | 401 kts | 306° |
| 2026-05-07 15:03 | 35.18961 | 30.85101 | 39771 ft | 403 kts | 312° |
| 2026-05-07 15:03 | 35.20825 | 30.82527 | 39897 ft | 406 kts | 313° |
| 2026-05-07 15:04 | 35.22740 | 30.79980 | 40000 ft | 408 kts | 313° |
| 2026-05-07 15:04 | 35.24693 | 30.77430 | 40092 ft | 412 kts | 314° |
| 2026-05-07 15:04 | 35.28656 | 30.72291 | 40131 ft | 423 kts | 314° |
| 2026-05-07 15:05 | 35.32745 | 30.66964 | 40128 ft | 434 kts | 313° |
| 2026-05-07 15:05 | 35.36923 | 30.61491 | 40129 ft | 444 kts | 313° |
| 2026-05-07 15:06 | 35.41147 | 30.55941 | 40126 ft | 444 kts | 313° |
| 2026-05-07 15:06 | 35.45332 | 30.50433 | 40129 ft | 444 kts | 313° |
| 2026-05-07 15:07 | 35.49535 | 30.44894 | 40127 ft | 443 kts | 313° |
| 2026-05-07 15:07 | 35.53735 | 30.39349 | 40128 ft | 443 kts | 313° |
| 2026-05-07 15:08 | 35.57926 | 30.33808 | 40127 ft | 442 kts | 313° |
| 2026-05-07 15:08 | 35.62115 | 30.28260 | 40126 ft | 442 kts | 313° |
| 2026-05-07 15:09 | 35.66290 | 30.22721 | 40128 ft | 441 kts | 313° |
| 2026-05-07 15:09 | 35.70429 | 30.17220 | 40128 ft | 441 kts | 313° |
| 2026-05-07 15:10 | 35.74592 | 30.11680 | 40128 ft | 440 kts | 313° |
| 2026-05-07 15:10 | 35.78750 | 30.06137 | 40127 ft | 440 kts | 313° |
| 2026-05-07 15:11 | 35.82584 | 30.00283 | 40127 ft | 440 kts | 303° |
| 2026-05-07 15:11 | 35.85151 | 29.93432 | 40114 ft | 441 kts | 292° |
| 2026-05-07 15:12 | 35.87144 | 29.86271 | 40125 ft | 442 kts | 290° |
| 2026-05-07 15:12 | 35.88728 | 29.80291 | 40127 ft | 441 kts | 290° |
| 2026-05-07 15:13 | 35.90953 | 29.71934 | 40129 ft | 440 kts | 290° |
| 2026-05-07 15:13 | 35.92554 | 29.65969 | 40126 ft | 440 kts | 290° |
| 2026-05-07 15:14 | 35.94677 | 29.58907 | 40128 ft | 438 kts | 297° |
| 2026-05-07 15:14 | 35.98035 | 29.52683 | 40126 ft | 436 kts | 312° |
| 2026-05-07 15:15 | 36.02522 | 29.47625 | 40129 ft | 437 kts | 319° |
| 2026-05-07 15:15 | 36.07204 | 29.42898 | 40130 ft | 437 kts | 320° |
| 2026-05-07 15:16 | 36.11944 | 29.38154 | 40132 ft | 437 kts | 320° |
| 2026-05-07 15:16 | 36.16660 | 29.33386 | 40134 ft | 438 kts | 319° |
| 2026-05-07 15:17 | 36.21362 | 29.28577 | 40135 ft | 438 kts | 319° |
| 2026-05-07 15:17 | 36.25977 | 29.23719 | 40141 ft | 438 kts | 318° |
| 2026-05-07 15:18 | 36.30618 | 29.18812 | 40139 ft | 438 kts | 318° |
| 2026-05-07 15:18 | 36.35266 | 29.13912 | 40144 ft | 439 kts | 318° |
| 2026-05-07 15:19 | 36.39929 | 29.08999 | 40143 ft | 439 kts | 318° |
| 2026-05-07 15:19 | 36.44586 | 29.04086 | 40145 ft | 439 kts | 318° |
| 2026-05-07 15:20 | 36.49241 | 28.99167 | 40149 ft | 440 kts | 318° |
| 2026-05-07 15:20 | 36.53900 | 28.94235 | 40153 ft | 440 kts | 318° |
| 2026-05-07 15:21 | 36.58559 | 28.89296 | 40155 ft | 440 kts | 318° |
| 2026-05-07 15:21 | 36.63188 | 28.84378 | 40161 ft | 440 kts | 318° |
| 2026-05-07 15:22 | 36.67848 | 28.79423 | 40160 ft | 441 kts | 318° |
| 2026-05-07 15:22 | 36.72509 | 28.74467 | 40155 ft | 441 kts | 319° |
| 2026-05-07 15:23 | 36.77188 | 28.69511 | 40160 ft | 441 kts | 318° |
| 2026-05-07 15:23 | 36.81860 | 28.64556 | 40154 ft | 441 kts | 318° |
| 2026-05-07 15:24 | 36.86531 | 28.59589 | 40151 ft | 441 kts | 318° |
| 2026-05-07 15:24 | 36.91160 | 28.54654 | 40154 ft | 441 kts | 318° |
| 2026-05-07 15:25 | 36.95834 | 28.49666 | 40136 ft | 441 kts | 318° |
| 2026-05-07 15:25 | 37.00519 | 28.44658 | 40146 ft | 441 kts | 318° |
| 2026-05-07 15:26 | 37.05181 | 28.39666 | 40144 ft | 441 kts | 318° |
| 2026-05-07 15:26 | 37.09843 | 28.34667 | 40142 ft | 442 kts | 318° |
| 2026-05-07 15:27 | 37.14476 | 28.29647 | 40124 ft | 441 kts | 317° |
| 2026-05-07 15:27 | 37.19139 | 28.24590 | 40127 ft | 441 kts | 318° |
| 2026-05-07 15:28 | 37.23775 | 28.19588 | 40123 ft | 442 kts | 318° |
| 2026-05-07 15:28 | 37.28439 | 28.14556 | 40124 ft | 441 kts | 318° |
| 2026-05-07 15:29 | 37.33082 | 28.09535 | 40125 ft | 441 kts | 318° |
| 2026-05-07 15:29 | 37.37742 | 28.04485 | 40128 ft | 441 kts | 317° |
| 2026-05-07 15:30 | 37.42388 | 27.99441 | 40126 ft | 441 kts | 317° |
| 2026-05-07 15:30 | 37.47033 | 27.94391 | 40127 ft | 441 kts | 317° |
| 2026-05-07 15:31 | 37.51674 | 27.89335 | 40115 ft | 441 kts | 317° |
| 2026-05-07 15:31 | 37.56309 | 27.84279 | 40117 ft | 441 kts | 317° |
| 2026-05-07 15:32 | 37.60948 | 27.79210 | 40107 ft | 441 kts | 317° |
| 2026-05-07 15:32 | 37.65581 | 27.74138 | 40112 ft | 441 kts | 317° |
| 2026-05-07 15:33 | 37.70232 | 27.69037 | 40115 ft | 441 kts | 317° |
| 2026-05-07 15:33 | 37.74853 | 27.63961 | 40111 ft | 441 kts | 317° |
| 2026-05-07 15:34 | 37.79493 | 27.58854 | 40108 ft | 441 kts | 317° |
| 2026-05-07 15:34 | 37.84109 | 27.53766 | 40129 ft | 441 kts | 317° |
| 2026-05-07 15:35 | 37.88737 | 27.48657 | 40125 ft | 441 kts | 317° |
| 2026-05-07 15:35 | 37.93385 | 27.43516 | 40133 ft | 442 kts | 317° |
| 2026-05-07 15:36 | 37.98011 | 27.38389 | 40128 ft | 442 kts | 317° |
| 2026-05-07 15:36 | 38.02611 | 27.33283 | 40133 ft | 442 kts | 317° |
| 2026-05-07 15:37 | 38.07242 | 27.28135 | 40125 ft | 442 kts | 317° |
| 2026-05-07 15:37 | 38.11860 | 27.22991 | 40133 ft | 442 kts | 317° |
| 2026-05-07 15:38 | 38.16475 | 27.17841 | 40103 ft | 442 kts | 317° |
| 2026-05-07 15:38 | 38.21079 | 27.12694 | 40103 ft | 442 kts | 317° |
| 2026-05-07 15:39 | 38.25712 | 27.07507 | 40101 ft | 442 kts | 317° |
| 2026-05-07 15:39 | 38.30301 | 27.02358 | 40105 ft | 441 kts | 317° |
| 2026-05-07 15:40 | 38.34925 | 26.97198 | 40114 ft | 441 kts | 317° |
| 2026-05-07 15:40 | 38.39597 | 26.92053 | 40116 ft | 442 kts | 317° |
| 2026-05-07 15:41 | 38.44224 | 26.86954 | 40117 ft | 442 kts | 317° |
| 2026-05-07 15:41 | 38.48874 | 26.81809 | 40125 ft | 442 kts | 317° |
| 2026-05-07 15:42 | 38.53532 | 26.76640 | 40120 ft | 442 kts | 317° |
| 2026-05-07 15:42 | 38.58157 | 26.71497 | 40119 ft | 442 kts | 317° |
| 2026-05-07 15:43 | 38.62822 | 26.66302 | 40128 ft | 442 kts | 317° |
| 2026-05-07 15:43 | 38.67459 | 26.61129 | 40119 ft | 443 kts | 317° |
| 2026-05-07 15:44 | 38.72075 | 26.55970 | 40120 ft | 443 kts | 317° |
| 2026-05-07 15:44 | 38.76710 | 26.50780 | 40126 ft | 443 kts | 316° |
| 2026-05-07 15:45 | 38.81360 | 26.45565 | 40125 ft | 442 kts | 316° |
| 2026-05-07 15:45 | 38.85678 | 26.39963 | 40119 ft | 441 kts | 311° |
| 2026-05-07 15:46 | 38.91797 | 26.31191 | 40120 ft | 440 kts | 310° |
| 2026-05-07 15:47 | 38.95864 | 26.25288 | 40118 ft | 440 kts | 310° |
| 2026-05-07 15:47 | 38.99904 | 26.19427 | 40121 ft | 440 kts | 310° |
| 2026-05-07 15:48 | 39.03986 | 26.13503 | 40119 ft | 440 kts | 310° |
| 2026-05-07 15:48 | 39.08027 | 26.07631 | 40119 ft | 440 kts | 310° |
| 2026-05-07 15:49 | 39.12086 | 26.01721 | 40123 ft | 440 kts | 310° |
| 2026-05-07 15:49 | 39.16135 | 25.95815 | 40115 ft | 440 kts | 309° |
| 2026-05-07 15:50 | 39.20172 | 25.89914 | 40124 ft | 440 kts | 309° |
| 2026-05-07 15:50 | 39.24207 | 25.84006 | 40122 ft | 439 kts | 309° |
| 2026-05-07 15:51 | 39.28268 | 25.78048 | 40120 ft | 439 kts | 309° |
| 2026-05-07 15:51 | 39.32294 | 25.72129 | 40122 ft | 439 kts | 309° |
| 2026-05-07 15:52 | 39.36314 | 25.66209 | 40124 ft | 440 kts | 309° |
| 2026-05-07 15:52 | 39.40345 | 25.60262 | 40125 ft | 440 kts | 309° |
| 2026-05-07 15:53 | 39.44356 | 25.54332 | 40122 ft | 440 kts | 309° |
| 2026-05-07 15:53 | 39.48382 | 25.48369 | 40125 ft | 440 kts | 309° |
| 2026-05-07 15:54 | 39.52405 | 25.42400 | 40122 ft | 440 kts | 309° |
| 2026-05-07 15:54 | 39.55749 | 25.37428 | 40120 ft | 439 kts | 309° |
| 2026-05-07 15:55 | 39.59766 | 25.31446 | 40117 ft | 439 kts | 309° |
| 2026-05-07 15:55 | 39.63780 | 25.25456 | 40113 ft | 440 kts | 309° |
| 2026-05-07 15:56 | 39.67792 | 25.19459 | 40109 ft | 440 kts | 309° |
| 2026-05-07 15:56 | 39.71775 | 25.13493 | 40109 ft | 440 kts | 309° |
| 2026-05-07 15:57 | 39.75784 | 25.07476 | 40105 ft | 439 kts | 308° |
| 2026-05-07 15:57 | 39.79778 | 25.01470 | 40106 ft | 439 kts | 308° |
| 2026-05-07 15:58 | 39.83776 | 24.95447 | 40105 ft | 440 kts | 308° |
| 2026-05-07 15:58 | 39.87761 | 24.89431 | 40107 ft | 440 kts | 308° |
| 2026-05-07 15:59 | 39.91773 | 24.83363 | 40103 ft | 440 kts | 308° |
| 2026-05-07 15:59 | 39.95746 | 24.77342 | 40101 ft | 440 kts | 308° |
| 2026-05-07 16:00 | 39.99731 | 24.71292 | 40098 ft | 440 kts | 308° |
| 2026-05-07 16:00 | 40.03728 | 24.65209 | 40104 ft | 439 kts | 308° |
| 2026-05-07 16:01 | 40.07692 | 24.59168 | 40110 ft | 440 kts | 308° |
| 2026-05-07 16:01 | 40.11669 | 24.53095 | 40104 ft | 440 kts | 308° |
| 2026-05-07 16:02 | 40.15647 | 24.47007 | 40109 ft | 440 kts | 308° |
| 2026-05-07 16:02 | 40.19634 | 24.40894 | 40101 ft | 441 kts | 308° |
| 2026-05-07 16:03 | 40.23594 | 24.34808 | 40101 ft | 441 kts | 308° |
| 2026-05-07 16:03 | 40.27582 | 24.28670 | 40100 ft | 441 kts | 308° |
| 2026-05-07 16:04 | 40.31548 | 24.22553 | 40108 ft | 442 kts | 308° |
| 2026-05-07 16:04 | 40.35521 | 24.16413 | 40107 ft | 442 kts | 308° |
| 2026-05-07 16:05 | 40.39481 | 24.10280 | 40107 ft | 442 kts | 308° |
| 2026-05-07 16:05 | 40.43442 | 24.04132 | 40105 ft | 442 kts | 308° |
| 2026-05-07 16:06 | 40.47421 | 23.97946 | 40110 ft | 442 kts | 308° |
| 2026-05-07 16:06 | 40.51384 | 23.91770 | 40107 ft | 442 kts | 308° |
| 2026-05-07 16:07 | 40.55361 | 23.85563 | 40107 ft | 443 kts | 308° |
| 2026-05-07 16:07 | 40.59312 | 23.79381 | 40111 ft | 443 kts | 308° |
| 2026-05-07 16:08 | 40.63274 | 23.73172 | 40109 ft | 444 kts | 307° |
| 2026-05-07 16:08 | 40.67241 | 23.66940 | 40111 ft | 444 kts | 307° |
| 2026-05-07 16:09 | 40.71215 | 23.60686 | 40116 ft | 444 kts | 307° |
| 2026-05-07 16:09 | 40.75189 | 23.54418 | 40114 ft | 445 kts | 307° |
| 2026-05-07 16:10 | 40.79145 | 23.48166 | 40119 ft | 445 kts | 307° |
| 2026-05-07 16:10 | 40.83098 | 23.41907 | 40121 ft | 445 kts | 307° |
| 2026-05-07 16:11 | 40.87070 | 23.35605 | 40123 ft | 445 kts | 307° |
| 2026-05-07 16:11 | 40.91034 | 23.29301 | 40123 ft | 445 kts | 307° |
| 2026-05-07 16:12 | 40.94979 | 23.23015 | 40130 ft | 446 kts | 307° |
| 2026-05-07 16:12 | 40.98950 | 23.16675 | 40128 ft | 446 kts | 307° |
| 2026-05-07 16:13 | 41.02902 | 23.10352 | 40133 ft | 446 kts | 307° |
| 2026-05-07 16:13 | 41.06870 | 23.03990 | 40134 ft | 446 kts | 307° |
| 2026-05-07 16:14 | 41.10809 | 22.97665 | 40135 ft | 447 kts | 307° |
| 2026-05-07 16:14 | 41.14806 | 22.91375 | 40136 ft | 447 kts | 308° |
| 2026-05-07 16:15 | 41.18844 | 22.85078 | 40129 ft | 447 kts | 308° |
| 2026-05-07 16:15 | 41.22872 | 22.78767 | 40129 ft | 447 kts | 307° |
| 2026-05-07 16:16 | 41.26916 | 22.72482 | 40132 ft | 448 kts | 309° |
| 2026-05-07 16:16 | 41.31117 | 22.66368 | 40131 ft | 448 kts | 310° |
| 2026-05-07 16:17 | 41.35350 | 22.60271 | 40132 ft | 448 kts | 310° |
| 2026-05-07 16:17 | 41.39532 | 22.54176 | 40131 ft | 448 kts | 309° |
| 2026-05-07 16:18 | 41.43727 | 22.48014 | 40129 ft | 448 kts | 309° |
| 2026-05-07 16:18 | 41.47919 | 22.41832 | 40127 ft | 449 kts | 309° |
| 2026-05-07 16:19 | 41.52078 | 22.35690 | 40121 ft | 449 kts | 309° |
| 2026-05-07 16:19 | 41.56279 | 22.29471 | 40117 ft | 449 kts | 309° |
| 2026-05-07 16:20 | 41.60445 | 22.23294 | 40115 ft | 449 kts | 309° |
| 2026-05-07 16:20 | 41.64633 | 22.17069 | 40109 ft | 449 kts | 309° |
| 2026-05-07 16:21 | 41.68800 | 22.10866 | 40107 ft | 449 kts | 309° |
| 2026-05-07 16:21 | 41.72988 | 22.04616 | 40101 ft | 450 kts | 309° |
| 2026-05-07 16:22 | 41.77150 | 21.98392 | 40103 ft | 450 kts | 309° |
| 2026-05-07 16:22 | 41.81333 | 21.92124 | 40100 ft | 450 kts | 309° |
| 2026-05-07 16:23 | 41.85503 | 21.85862 | 40103 ft | 450 kts | 309° |
| 2026-05-07 16:23 | 41.89679 | 21.79577 | 40103 ft | 451 kts | 309° |
| 2026-05-07 16:24 | 41.93855 | 21.73281 | 40104 ft | 451 kts | 309° |
| 2026-05-07 16:24 | 41.98001 | 21.67014 | 40105 ft | 451 kts | 309° |
| 2026-05-07 16:25 | 42.02174 | 21.60694 | 40105 ft | 451 kts | 309° |
| 2026-05-07 16:25 | 42.06338 | 21.54374 | 40106 ft | 451 kts | 308° |
| 2026-05-07 16:26 | 42.10499 | 21.48046 | 40102 ft | 451 kts | 308° |
| 2026-05-07 16:26 | 42.14666 | 21.41695 | 40105 ft | 451 kts | 308° |
| 2026-05-07 16:27 | 42.18792 | 21.35340 | 40103 ft | 450 kts | 308° |
| 2026-05-07 16:27 | 42.22831 | 21.28908 | 40110 ft | 451 kts | 307° |
| 2026-05-07 16:28 | 42.26872 | 21.22434 | 40105 ft | 451 kts | 307° |
| 2026-05-07 16:28 | 42.30944 | 21.15933 | 40105 ft | 451 kts | 307° |
| 2026-05-07 16:29 | 42.34988 | 21.09481 | 40107 ft | 451 kts | 307° |
| 2026-05-07 16:29 | 42.39043 | 21.03001 | 40104 ft | 451 kts | 307° |
| 2026-05-07 16:30 | 42.43099 | 20.96501 | 40104 ft | 451 kts | 307° |
| 2026-05-07 16:30 | 42.47131 | 20.90028 | 40100 ft | 452 kts | 307° |
| 2026-05-07 16:31 | 42.51185 | 20.83505 | 40094 ft | 452 kts | 307° |
| 2026-05-07 16:31 | 42.55247 | 20.76953 | 40087 ft | 452 kts | 307° |
| 2026-05-07 16:32 | 42.59275 | 20.70442 | 40081 ft | 452 kts | 307° |
| 2026-05-07 16:32 | 42.63319 | 20.63891 | 40075 ft | 452 kts | 307° |
| 2026-05-07 16:33 | 42.67369 | 20.57316 | 40079 ft | 453 kts | 307° |
| 2026-05-07 16:33 | 42.70727 | 20.51851 | 40078 ft | 453 kts | 307° |
| 2026-05-07 16:34 | 42.74758 | 20.45280 | 40077 ft | 453 kts | 307° |
| 2026-05-07 16:34 | 42.78797 | 20.38681 | 40074 ft | 453 kts | 307° |
| 2026-05-07 16:35 | 42.82896 | 20.32114 | 40070 ft | 455 kts | 311° |
| 2026-05-07 16:35 | 42.87584 | 20.26303 | 40066 ft | 458 kts | 316° |
| 2026-05-07 16:36 | 42.92474 | 20.20637 | 40068 ft | 459 kts | 316° |
| 2026-05-07 16:36 | 42.97342 | 20.15051 | 40062 ft | 459 kts | 316° |
| 2026-05-07 16:37 | 43.02243 | 20.09402 | 40057 ft | 459 kts | 316° |
| 2026-05-07 16:37 | 43.07121 | 20.03748 | 40054 ft | 459 kts | 316° |
| 2026-05-07 16:38 | 43.11991 | 19.98085 | 40049 ft | 460 kts | 316° |
| 2026-05-07 16:38 | 43.16869 | 19.92403 | 40045 ft | 460 kts | 316° |
| 2026-05-07 16:39 | 43.21727 | 19.86732 | 40043 ft | 461 kts | 316° |
| 2026-05-07 16:39 | 43.26616 | 19.81012 | 40045 ft | 461 kts | 316° |
| 2026-05-07 16:40 | 43.31488 | 19.75299 | 40040 ft | 461 kts | 316° |
| 2026-05-07 16:40 | 43.36397 | 19.69530 | 40034 ft | 462 kts | 316° |
| 2026-05-07 16:41 | 43.41274 | 19.63785 | 40041 ft | 462 kts | 316° |
| 2026-05-07 16:41 | 43.46141 | 19.58042 | 40038 ft | 463 kts | 316° |
| 2026-05-07 16:42 | 43.51040 | 19.52248 | 40034 ft | 463 kts | 316° |
| 2026-05-07 16:42 | 43.55913 | 19.46474 | 40036 ft | 463 kts | 315° |
| 2026-05-07 16:43 | 43.60802 | 19.40663 | 40030 ft | 463 kts | 315° |
| 2026-05-07 16:43 | 43.65675 | 19.34860 | 40030 ft | 463 kts | 315° |
| 2026-05-07 16:44 | 43.70548 | 19.29044 | 40031 ft | 463 kts | 315° |
| 2026-05-07 16:44 | 43.75421 | 19.23214 | 40034 ft | 463 kts | 315° |
| 2026-05-07 16:45 | 43.80303 | 19.17361 | 40035 ft | 464 kts | 315° |
| 2026-05-07 16:45 | 43.85178 | 19.11502 | 40034 ft | 464 kts | 315° |
| 2026-05-07 16:46 | 43.90016 | 19.05682 | 40015 ft | 455 kts | 315° |
| 2026-05-07 16:46 | 43.92382 | 19.02838 | 40031 ft | 443 kts | 315° |
| 2026-05-07 16:46 | 43.94694 | 19.00053 | 40017 ft | 437 kts | 315° |
| 2026-05-07 16:47 | 43.99262 | 18.94523 | 40022 ft | 436 kts | 315° |
| 2026-05-07 16:47 | 44.03837 | 18.88968 | 40042 ft | 436 kts | 315° |
| 2026-05-07 16:48 | 44.08416 | 18.83403 | 40028 ft | 437 kts | 314° |
| 2026-05-07 16:48 | 44.12978 | 18.77849 | 40026 ft | 437 kts | 314° |
| 2026-05-07 16:49 | 44.17546 | 18.72278 | 40023 ft | 437 kts | 314° |
| 2026-05-07 16:49 | 44.22106 | 18.66702 | 40026 ft | 437 kts | 314° |
| 2026-05-07 16:50 | 44.26696 | 18.61079 | 40024 ft | 438 kts | 314° |
| 2026-05-07 16:50 | 44.31263 | 18.55472 | 40023 ft | 438 kts | 314° |
| 2026-05-07 16:51 | 44.35848 | 18.49834 | 40023 ft | 439 kts | 314° |
| 2026-05-07 16:51 | 44.40428 | 18.44186 | 40019 ft | 439 kts | 314° |
| 2026-05-07 16:52 | 44.44984 | 18.38557 | 40014 ft | 439 kts | 314° |
| 2026-05-07 16:52 | 44.49571 | 18.32877 | 40015 ft | 439 kts | 314° |
| 2026-05-07 16:53 | 44.54155 | 18.27187 | 40013 ft | 439 kts | 314° |
| 2026-05-07 16:53 | 44.58701 | 18.21533 | 40010 ft | 440 kts | 314° |
| 2026-05-07 16:54 | 44.63282 | 18.15823 | 40011 ft | 440 kts | 314° |
| 2026-05-07 16:54 | 44.67869 | 18.10094 | 40006 ft | 440 kts | 314° |
| 2026-05-07 16:55 | 44.72496 | 18.04293 | 40010 ft | 452 kts | 314° |
| 2026-05-07 16:55 | 44.77233 | 17.98339 | 40009 ft | 465 kts | 314° |
| 2026-05-07 16:56 | 44.82117 | 17.92198 | 40009 ft | 470 kts | 314° |
| 2026-05-07 16:56 | 44.89407 | 17.83014 | 40008 ft | 470 kts | 314° |
| 2026-05-07 16:57 | 44.94286 | 17.76844 | 40008 ft | 470 kts | 314° |
| 2026-05-07 16:57 | 44.99147 | 17.70680 | 40013 ft | 470 kts | 314° |
| 2026-05-07 16:58 | 45.04016 | 17.64490 | 40014 ft | 470 kts | 314° |
| 2026-05-07 16:58 | 45.08866 | 17.58307 | 40016 ft | 470 kts | 314° |
| 2026-05-07 16:59 | 45.13736 | 17.52087 | 40013 ft | 471 kts | 313° |
| 2026-05-07 16:59 | 45.18613 | 17.45842 | 40013 ft | 471 kts | 313° |
| 2026-05-07 17:00 | 45.23463 | 17.39618 | 40012 ft | 471 kts | 313° |
| 2026-05-07 17:00 | 45.28321 | 17.33367 | 40011 ft | 471 kts | 313° |
| 2026-05-07 17:01 | 45.33184 | 17.27094 | 40003 ft | 472 kts | 313° |
| 2026-05-07 17:01 | 45.38027 | 17.20833 | 40000 ft | 472 kts | 313° |
| 2026-05-07 17:02 | 45.42886 | 17.14537 | 40000 ft | 472 kts | 313° |
| 2026-05-07 17:02 | 45.47747 | 17.08221 | 39997 ft | 472 kts | 313° |
| 2026-05-07 17:03 | 45.52591 | 17.01911 | 39997 ft | 472 kts | 313° |
| 2026-05-07 17:03 | 45.57424 | 16.95601 | 39988 ft | 473 kts | 313° |
| 2026-05-07 17:04 | 45.62269 | 16.89260 | 39989 ft | 473 kts | 313° |
| 2026-05-07 17:04 | 45.67149 | 16.82858 | 39990 ft | 473 kts | 313° |
| 2026-05-07 17:05 | 45.71991 | 16.76490 | 39994 ft | 473 kts | 313° |
| 2026-05-07 17:05 | 45.76819 | 16.70125 | 39993 ft | 473 kts | 313° |
| 2026-05-07 17:06 | 45.81644 | 16.63747 | 39990 ft | 472 kts | 313° |
| 2026-05-07 17:06 | 45.86472 | 16.57350 | 39988 ft | 472 kts | 313° |
| 2026-05-07 17:07 | 45.91291 | 16.50950 | 39984 ft | 472 kts | 313° |
| 2026-05-07 17:07 | 45.96127 | 16.44511 | 39981 ft | 472 kts | 313° |
| 2026-05-07 17:08 | 46.00946 | 16.38079 | 39981 ft | 473 kts | 313° |
| 2026-05-07 17:08 | 46.04942 | 16.32732 | 39980 ft | 473 kts | 313° |
| 2026-05-07 17:09 | 46.09769 | 16.26259 | 39974 ft | 473 kts | 313° |
| 2026-05-07 17:09 | 46.14583 | 16.19787 | 39967 ft | 473 kts | 313° |
| 2026-05-07 17:10 | 46.19383 | 16.13320 | 39961 ft | 473 kts | 313° |
| 2026-05-07 17:10 | 46.24219 | 16.06787 | 39954 ft | 474 kts | 313° |
| 2026-05-07 17:11 | 46.28999 | 16.00312 | 39946 ft | 474 kts | 313° |
| 2026-05-07 17:11 | 46.33799 | 15.93702 | 39947 ft | 473 kts | 311° |
| 2026-05-07 17:12 | 46.38408 | 15.86917 | 39937 ft | 473 kts | 310° |
| 2026-05-07 17:12 | 46.42994 | 15.80084 | 39937 ft | 473 kts | 310° |
| 2026-05-07 17:13 | 46.47605 | 15.73263 | 39932 ft | 474 kts | 310° |
| 2026-05-07 17:13 | 46.52226 | 15.66450 | 39938 ft | 474 kts | 310° |
| 2026-05-07 17:14 | 46.56844 | 15.59634 | 39924 ft | 474 kts | 310° |
| 2026-05-07 17:14 | 46.61486 | 15.52762 | 39946 ft | 474 kts | 310° |
| 2026-05-07 17:15 | 46.66098 | 15.45916 | 39924 ft | 474 kts | 310° |
| 2026-05-07 17:15 | 46.70713 | 15.39043 | 39933 ft | 474 kts | 310° |
| 2026-05-07 17:16 | 46.75317 | 15.32170 | 39941 ft | 474 kts | 310° |
| 2026-05-07 17:16 | 46.79910 | 15.25296 | 39947 ft | 474 kts | 310° |
| 2026-05-07 17:17 | 46.84526 | 15.18369 | 39952 ft | 475 kts | 310° |
| 2026-05-07 17:17 | 46.89104 | 15.11482 | 39953 ft | 475 kts | 309° |
| 2026-05-07 17:18 | 46.93710 | 15.04535 | 39952 ft | 475 kts | 309° |
| 2026-05-07 17:18 | 46.98300 | 14.97589 | 39984 ft | 475 kts | 309° |
| 2026-05-07 17:19 | 47.02889 | 14.90629 | 40017 ft | 476 kts | 309° |
| 2026-05-07 17:19 | 47.07500 | 14.83621 | 40033 ft | 476 kts | 309° |
| 2026-05-07 17:20 | 47.12104 | 14.76601 | 40046 ft | 476 kts | 309° |
| 2026-05-07 17:20 | 47.16678 | 14.69609 | 40051 ft | 476 kts | 309° |
| 2026-05-07 17:21 | 47.21013 | 14.62967 | 40050 ft | 476 kts | 309° |
| 2026-05-07 17:21 | 47.25600 | 14.55919 | 40043 ft | 477 kts | 309° |
| 2026-05-07 17:22 | 47.30221 | 14.48800 | 40041 ft | 478 kts | 309° |
| 2026-05-07 17:22 | 47.34787 | 14.41746 | 40042 ft | 479 kts | 309° |
| 2026-05-07 17:23 | 47.39404 | 14.34597 | 40044 ft | 480 kts | 309° |
| 2026-05-07 17:23 | 47.44006 | 14.27449 | 40037 ft | 479 kts | 309° |
| 2026-05-07 17:24 | 47.48576 | 14.20336 | 40033 ft | 479 kts | 309° |
| 2026-05-07 17:24 | 47.53162 | 14.13168 | 40041 ft | 479 kts | 309° |
| 2026-05-07 17:25 | 47.57740 | 14.06001 | 40029 ft | 479 kts | 309° |
| 2026-05-07 17:25 | 47.62319 | 13.98811 | 40034 ft | 479 kts | 309° |
| 2026-05-07 17:26 | 47.66870 | 13.91646 | 40029 ft | 479 kts | 309° |
| 2026-05-07 17:26 | 47.71451 | 13.84414 | 40019 ft | 478 kts | 309° |
| 2026-05-07 17:27 | 47.76009 | 13.77199 | 40032 ft | 479 kts | 309° |
| 2026-05-07 17:27 | 47.80552 | 13.69987 | 40025 ft | 479 kts | 309° |
| 2026-05-07 17:28 | 47.85123 | 13.62710 | 40029 ft | 479 kts | 309° |
| 2026-05-07 17:28 | 47.89647 | 13.55490 | 40024 ft | 480 kts | 309° |
| 2026-05-07 17:29 | 47.94222 | 13.48168 | 40023 ft | 480 kts | 309° |
| 2026-05-07 17:29 | 47.98769 | 13.40869 | 40028 ft | 481 kts | 309° |
| 2026-05-07 17:30 | 48.03323 | 13.33539 | 40036 ft | 482 kts | 309° |
| 2026-05-07 17:30 | 48.07853 | 13.26137 | 40010 ft | 482 kts | 307° |
| 2026-05-07 17:31 | 48.12199 | 13.18530 | 39983 ft | 482 kts | 306° |
| 2026-05-07 17:31 | 48.16409 | 13.10685 | 39965 ft | 481 kts | 304° |
| 2026-05-07 17:32 | 48.20465 | 13.02727 | 39929 ft | 481 kts | 303° |
| 2026-05-07 17:32 | 48.24019 | 12.96240 | 40009 ft | 487 kts | 313° |
| 2026-05-07 17:33 | 48.29994 | 12.88536 | 40025 ft | 486 kts | 315° |
| 2026-05-07 17:33 | 48.34836 | 12.81464 | 40028 ft | 482 kts | 309° |
| 2026-05-07 17:34 | 48.38877 | 12.73449 | 40026 ft | 479 kts | 301° |
| 2026-05-07 17:34 | 48.42588 | 12.65181 | 40030 ft | 479 kts | 301° |
| 2026-05-07 17:35 | 48.46300 | 12.56842 | 40032 ft | 479 kts | 301° |
| 2026-05-07 17:35 | 48.50018 | 12.48458 | 40034 ft | 479 kts | 301° |
| 2026-05-07 17:36 | 48.53694 | 12.40142 | 40034 ft | 479 kts | 301° |
| 2026-05-07 17:36 | 48.57391 | 12.31753 | 40032 ft | 479 kts | 301° |
| 2026-05-07 17:37 | 48.61068 | 12.23382 | 40032 ft | 479 kts | 301° |
| 2026-05-07 17:37 | 48.64750 | 12.14974 | 40041 ft | 479 kts | 301° |
| 2026-05-07 17:38 | 48.68414 | 12.06579 | 40039 ft | 479 kts | 301° |
| 2026-05-07 17:38 | 48.72084 | 11.98146 | 40035 ft | 479 kts | 301° |
| 2026-05-07 17:39 | 48.75742 | 11.89714 | 40045 ft | 479 kts | 301° |
| 2026-05-07 17:39 | 48.79408 | 11.81236 | 40044 ft | 479 kts | 301° |
| 2026-05-07 17:40 | 48.83041 | 11.72808 | 40049 ft | 479 kts | 301° |
| 2026-05-07 17:40 | 48.86677 | 11.64347 | 40051 ft | 479 kts | 301° |
| 2026-05-07 17:41 | 48.90317 | 11.55850 | 39751 ft | 478 kts | 301° |
| 2026-05-07 17:41 | 48.92124 | 11.51621 | 39312 ft | 478 kts | 301° |
| 2026-05-07 17:41 | 48.93926 | 11.47397 | 38878 ft | 478 kts | 301° |
| 2026-05-07 17:42 | 48.95742 | 11.43134 | 38370 ft | 478 kts | 301° |
| 2026-05-07 17:42 | 48.97533 | 11.38923 | 37823 ft | 478 kts | 301° |
| 2026-05-07 17:42 | 48.99344 | 11.34656 | 37295 ft | 477 kts | 301° |
| 2026-05-07 17:42 | 49.01143 | 11.30415 | 36770 ft | 477 kts | 301° |
| 2026-05-07 17:43 | 49.02930 | 11.26192 | 36202 ft | 477 kts | 301° |
| 2026-05-07 17:43 | 49.04739 | 11.21912 | 35645 ft | 477 kts | 301° |
| 2026-05-07 17:43 | 49.06517 | 11.17697 | 35094 ft | 476 kts | 301° |
| 2026-05-07 17:43 | 49.08302 | 11.13461 | 34555 ft | 474 kts | 301° |
| 2026-05-07 17:44 | 49.10078 | 11.09240 | 34011 ft | 469 kts | 301° |
| 2026-05-07 17:44 | 49.11832 | 11.05063 | 33383 ft | 464 kts | 301° |
| 2026-05-07 17:44 | 49.13003 | 11.02272 | 32963 ft | 461 kts | 301° |
| 2026-05-07 17:44 | 49.14725 | 10.98163 | 32356 ft | 457 kts | 301° |
| 2026-05-07 17:45 | 49.16412 | 10.94128 | 31762 ft | 453 kts | 301° |
| 2026-05-07 17:45 | 49.18101 | 10.90083 | 31176 ft | 449 kts | 301° |
| 2026-05-07 17:45 | 49.19770 | 10.86081 | 30612 ft | 446 kts | 301° |
| 2026-05-07 17:45 | 49.21436 | 10.82079 | 30020 ft | 445 kts | 301° |
| 2026-05-07 17:46 | 49.23096 | 10.78086 | 29371 ft | 443 kts | 301° |
| 2026-05-07 17:46 | 49.24738 | 10.74129 | 28722 ft | 440 kts | 301° |
| 2026-05-07 17:46 | 49.26384 | 10.70159 | 28075 ft | 436 kts | 301° |
| 2026-05-07 17:46 | 49.28005 | 10.66242 | 27472 ft | 431 kts | 301° |
| 2026-05-07 17:47 | 49.29591 | 10.62404 | 26855 ft | 428 kts | 301° |
| 2026-05-07 17:47 | 49.31177 | 10.58562 | 26279 ft | 425 kts | 301° |
| 2026-05-07 17:47 | 49.32752 | 10.54739 | 25686 ft | 422 kts | 301° |
| 2026-05-07 17:47 | 49.34319 | 10.50932 | 25067 ft | 419 kts | 301° |
| 2026-05-07 17:48 | 49.35860 | 10.47180 | 24458 ft | 417 kts | 301° |
| 2026-05-07 17:48 | 49.37451 | 10.43428 | 23853 ft | 414 kts | 304° |
| 2026-05-07 17:48 | 49.39094 | 10.39878 | 23209 ft | 411 kts | 304° |
| 2026-05-07 17:48 | 49.40759 | 10.36307 | 22560 ft | 407 kts | 304° |
| 2026-05-07 17:49 | 49.42386 | 10.32784 | 22040 ft | 401 kts | 304° |
| 2026-05-07 17:49 | 49.43989 | 10.29291 | 21491 ft | 397 kts | 304° |
| 2026-05-07 17:49 | 49.45561 | 10.25848 | 20994 ft | 394 kts | 304° |
| 2026-05-07 17:49 | 49.47140 | 10.22380 | 20506 ft | 392 kts | 304° |
| 2026-05-07 17:50 | 49.48691 | 10.18964 | 20030 ft | 389 kts | 303° |
| 2026-05-07 17:50 | 49.50231 | 10.15567 | 19563 ft | 386 kts | 303° |
| 2026-05-07 17:50 | 49.51765 | 10.12178 | 19099 ft | 384 kts | 303° |
| 2026-05-07 17:50 | 49.53288 | 10.08809 | 18636 ft | 381 kts | 303° |
| 2026-05-07 17:51 | 49.54801 | 10.05467 | 18183 ft | 378 kts | 303° |
| 2026-05-07 17:51 | 49.56291 | 10.02160 | 17642 ft | 376 kts | 303° |
| 2026-05-07 17:51 | 49.57758 | 9.98898 | 17152 ft | 373 kts | 303° |
| 2026-05-07 17:51 | 49.59248 | 9.95589 | 16651 ft | 371 kts | 304° |
| 2026-05-07 17:52 | 49.60700 | 9.92357 | 16191 ft | 368 kts | 304° |
| 2026-05-07 17:52 | 49.62165 | 9.89084 | 15813 ft | 367 kts | 304° |
| 2026-05-07 17:52 | 49.63608 | 9.85860 | 15438 ft | 365 kts | 304° |
| 2026-05-07 17:52 | 49.65042 | 9.82651 | 15068 ft | 363 kts | 304° |
| 2026-05-07 17:53 | 49.66464 | 9.79467 | 14697 ft | 361 kts | 304° |
| 2026-05-07 17:53 | 49.67903 | 9.76245 | 14334 ft | 360 kts | 304° |
| 2026-05-07 17:53 | 49.69315 | 9.73076 | 13974 ft | 358 kts | 304° |
| 2026-05-07 17:53 | 49.70815 | 9.70000 | 13584 ft | 357 kts | 310° |
| 2026-05-07 17:54 | 49.72504 | 9.67165 | 13188 ft | 355 kts | 313° |
| 2026-05-07 17:54 | 49.74200 | 9.64466 | 12806 ft | 353 kts | 314° |
| 2026-05-07 17:54 | 49.75922 | 9.61739 | 12419 ft | 351 kts | 314° |
| 2026-05-07 17:54 | 49.77628 | 9.59038 | 12012 ft | 345 kts | 314° |
| 2026-05-07 17:55 | 49.79267 | 9.56446 | 11628 ft | 335 kts | 314° |
| 2026-05-07 17:55 | 49.80873 | 9.53906 | 11252 ft | 327 kts | 314° |
| 2026-05-07 17:55 | 49.82462 | 9.51397 | 10974 ft | 320 kts | 314° |
| 2026-05-07 17:55 | 49.84000 | 9.48968 | 10616 ft | 309 kts | 314° |
| 2026-05-07 17:56 | 49.85464 | 9.46662 | 10239 ft | 291 kts | 314° |
| 2026-05-07 17:56 | 49.86858 | 9.44470 | 9856 ft | 279 kts | 314° |
| 2026-05-07 17:56 | 49.88212 | 9.42341 | 9456 ft | 276 kts | 314° |
| 2026-05-07 17:56 | 49.89552 | 9.40232 | 9070 ft | 274 kts | 314° |
| 2026-05-07 17:57 | 49.90888 | 9.38125 | 8681 ft | 272 kts | 314° |
| 2026-05-07 17:57 | 49.91771 | 9.36732 | 8413 ft | 270 kts | 314° |
| 2026-05-07 17:57 | 49.93512 | 9.33986 | 7899 ft | 267 kts | 314° |
| 2026-05-07 17:57 | 49.94809 | 9.31938 | 7525 ft | 265 kts | 314° |
| 2026-05-07 17:58 | 49.96089 | 9.29917 | 7154 ft | 265 kts | 314° |
| 2026-05-07 17:58 | 49.97385 | 9.27867 | 6850 ft | 266 kts | 314° |
| 2026-05-07 17:58 | 49.98679 | 9.25821 | 6483 ft | 266 kts | 314° |
| 2026-05-07 17:58 | 49.99985 | 9.23752 | 6090 ft | 265 kts | 314° |
| 2026-05-07 17:59 | 50.01254 | 9.21730 | 5765 ft | 262 kts | 314° |
| 2026-05-07 17:59 | 50.02519 | 9.19702 | 5501 ft | 261 kts | 314° |
| 2026-05-07 17:59 | 50.03781 | 9.17672 | 5247 ft | 260 kts | 314° |
| 2026-05-07 17:59 | 50.05028 | 9.15659 | 4993 ft | 259 kts | 314° |
| 2026-05-07 18:00 | 50.06271 | 9.13640 | 4729 ft | 257 kts | 314° |
| 2026-05-07 18:00 | 50.07503 | 9.11629 | 4457 ft | 257 kts | 314° |
| 2026-05-07 18:00 | 50.08716 | 9.09568 | 4197 ft | 255 kts | 309° |
| 2026-05-07 18:00 | 50.09467 | 9.07166 | 4020 ft | 246 kts | 287° |
| 2026-05-07 18:01 | 50.09862 | 9.04719 | 3988 ft | 232 kts | 284° |
| 2026-05-07 18:01 | 50.10207 | 9.02284 | 3994 ft | 227 kts | 284° |
| 2026-05-07 18:01 | 50.10542 | 8.99880 | 3993 ft | 227 kts | 283° |
| 2026-05-07 18:01 | 50.10878 | 8.97468 | 3990 ft | 227 kts | 283° |
| 2026-05-07 18:02 | 50.11527 | 8.92684 | 3984 ft | 228 kts | 280° |
| 2026-05-07 18:02 | 50.11466 | 8.90206 | 3994 ft | 230 kts | 260° |
| 2026-05-07 18:02 | 50.11004 | 8.87855 | 3985 ft | 221 kts | 251° |
| 2026-05-07 18:03 | 50.10473 | 8.85711 | 3998 ft | 204 kts | 251° |
| 2026-05-07 18:03 | 50.09988 | 8.83722 | 3882 ft | 192 kts | 251° |
| 2026-05-07 18:03 | 50.09530 | 8.81781 | 3596 ft | 188 kts | 252° |
| 2026-05-07 18:03 | 50.09078 | 8.79876 | 3300 ft | 188 kts | 251° |
| 2026-05-07 18:04 | 50.08622 | 8.77966 | 3019 ft | 188 kts | 251° |
| 2026-05-07 18:04 | 50.08171 | 8.76079 | 2783 ft | 188 kts | 251° |
| 2026-05-07 18:04 | 50.07730 | 8.74234 | 2529 ft | 182 kts | 251° |
| 2026-05-07 18:04 | 50.07297 | 8.72422 | 2273 ft | 173 kts | 251° |
| 2026-05-07 18:05 | 50.06895 | 8.70737 | 2040 ft | 160 kts | 251° |
| 2026-05-07 18:05 | 50.06521 | 8.69170 | 1829 ft | 148 kts | 251° |
| 2026-05-07 18:05 | 50.06167 | 8.67690 | 1643 ft | 146 kts | 251° |
| 2026-05-07 18:05 | 50.05813 | 8.66207 | 1437 ft | 146 kts | 251° |
| 2026-05-07 18:06 | 50.05460 | 8.64726 | 1239 ft | 146 kts | 250° |
| 2026-05-07 18:06 | 50.05105 | 8.63253 | 1041 ft | 144 kts | 249° |
| 2026-05-07 18:06 | 50.04739 | 8.61794 | 837 ft | 144 kts | 250° |
| 2026-05-07 18:06 | 50.04393 | 8.60333 | 640 ft | 143 kts | 253° |
| 2026-05-07 18:07 | 50.04058 | 8.58892 | 466 ft | 143 kts | 250° |
| 2026-05-07 18:07 | 50.03717 | 8.57451 | 374 ft | 138 kts | 251° |
| 2026-05-07 18:07 | 50.03450 | 8.56327 | 369 ft | 76 kts | 249° |
| 2026-05-07 18:07 | 50.03337 | 8.55857 | 362 ft | 39 kts | 249° |
| 2026-05-07 18:08 | 50.03319 | 8.55452 | 364 ft | 30 kts | 281° |
| 2026-05-07 18:08 | 50.03345 | 8.55203 | 357 ft | 26 kts | 279° |
| 2026-05-07 18:08 | 50.03361 | 8.55066 | 359 ft | 0 kts | 283° |
| 2026-05-07 18:09 | 50.03361 | 8.55065 | 359 ft | 1 kts | 283° |
| 2026-05-07 18:09 | 50.03374 | 8.55047 | 362 ft | 3 kts | 329° |
| 2026-05-07 18:10 | 50.03391 | 8.55056 | 362 ft | 2 kts | 37° |
| 2026-05-07 18:10 | 50.03404 | 8.55104 | 362 ft | 8 kts | 69° |
| 2026-05-07 18:10 | 50.03434 | 8.55229 | 361 ft | 16 kts | 70° |
| 2026-05-07 18:10 | 50.03481 | 8.55424 | 359 ft | 22 kts | 70° |
| 2026-05-07 18:11 | 50.03533 | 8.55645 | 364 ft | 21 kts | 69° |
| 2026-05-07 18:11 | 50.03569 | 8.55789 | 367 ft | 22 kts | 69° |
| 2026-05-07 18:11 | 50.03640 | 8.56089 | 368 ft | 23 kts | 70° |
| 2026-05-07 18:11 | 50.03698 | 8.56335 | 367 ft | 25 kts | 70° |
| 2026-05-07 18:12 | 50.03761 | 8.56603 | 368 ft | 28 kts | 69° |
| 2026-05-07 18:12 | 50.03832 | 8.56891 | 368 ft | 26 kts | 70° |
| 2026-05-07 18:12 | 50.03888 | 8.57128 | 372 ft | 19 kts | 70° |
| 2026-05-07 18:12 | 50.03936 | 8.57328 | 376 ft | 20 kts | 69° |
| 2026-05-07 18:13 | 50.03989 | 8.57544 | 372 ft | 23 kts | 69° |
| 2026-05-07 18:13 | 50.04049 | 8.57799 | 371 ft | 23 kts | 69° |
| 2026-05-07 18:13 | 50.04096 | 8.57993 | 373 ft | 20 kts | 70° |
| 2026-05-07 18:13 | 50.04171 | 8.58158 | 376 ft | 18 kts | 27° |
| 2026-05-07 18:14 | 50.04289 | 8.58201 | 375 ft | 16 kts | 344° |
| 2026-05-07 18:14 | 50.04362 | 8.58150 | 375 ft | 10 kts | 340° |
| 2026-05-07 18:14 | 50.04429 | 8.58117 | 377 ft | 10 kts | 343° |
| 2026-05-07 18:14 | 50.04507 | 8.58080 | 377 ft | 13 kts | 341° |
| 2026-05-07 18:15 | 50.04596 | 8.58027 | 379 ft | 14 kts | 340° |
| 2026-05-07 18:15 | 50.04637 | 8.58003 | 379 ft | 0 kts | 339° |
| 2026-05-07 18:17 | 50.04646 | 8.57997 | 379 ft | 5 kts | 339° |
| 2026-05-07 18:18 | 50.04681 | 8.57977 | 379 ft | 11 kts | 340° |
| 2026-05-07 18:18 | 50.04774 | 8.57923 | 377 ft | 16 kts | 339° |
| 2026-05-07 18:18 | 50.04850 | 8.57828 | 376 ft | 7 kts | 293° |
| 2026-05-07 18:18 | 50.04866 | 8.57777 | 376 ft | 7 kts | 306° |
| 2026-05-07 18:19 | 50.04903 | 8.57767 | 375 ft | 5 kts | 8° |
| 2026-05-07 18:19 | 50.04936 | 8.57785 | 375 ft | 4 kts | 19° |
| 2026-05-07 18:19 | 50.04942 | 8.57788 | 375 ft | 0 kts | 19° |